Flight Track Log - Related Links

Times and Time Zones

All times are in EDT time to prevent confusion due to time zone crossing. See the ASH3770 flight status page for this flight to view local times or setup timezone preferences in your user account.

Time Position Orientation Groundspeed Altitude Reporting Facility
EDT Latitude Longitude Course Direction KTS MPH feet Rate Location/Type
Fri 09:23:00 PM 40.5439 -80.1706 286° West 291 335 4,300  Level Cleveland Center
Fri 09:24:00 PM 40.5699 -80.6661 285° West  Level FlightAware Approximate
Fri 09:24:00 PM 40.5794 -80.2769 294° West 271 312 8,500  Level Cleveland Center
Fri 09:25:00 PM 40.6061 -80.8131 291° West  Level FlightAware Approximate
Fri 09:25:00 PM 40.5944 -80.3836 281° West 283 326 10,800  Level Cleveland Center
Fri 09:26:00 PM 40.6403 -80.9611 288° West  Level FlightAware Approximate
Fri 09:26:00 PM 40.6092 -80.5039 279° West 322 371 13,600  Level Cleveland Center
Fri 09:27:00 PM 40.6690 -81.1112 286° West  Level FlightAware Approximate
Fri 09:27:00 PM 40.6258 -80.6242 280° West 336 387 15,700  Level Cleveland Center
Fri 09:28:00 PM 40.7006 -81.2605 286° West  Level FlightAware Approximate
Fri 09:28:00 PM 40.6486 -80.7472 284° West 341 392 17,800  Level Cleveland Center
Fri 09:29:00 PM 40.6672 -80.8786 281° West 352 405 19,500 2,000 Climbing Cleveland Center
Fri 09:30:00 PM 40.6856 -81.0131 280° West 364 419 21,800 1,950 Climbing Cleveland Center
Fri 09:31:00 PM 40.7017 -81.1444 279° West 391 450 23,400 1,500 Climbing Cleveland Center
Fri 09:32:00 PM 40.7175 -81.2844 279° West 396 456 24,800 1,550 Climbing Cleveland Center
Fri 09:33:00 PM 40.7392 -81.4464 280° West 401 461 26,500 1,400 Climbing Cleveland Center
Fri 09:34:00 PM 40.7672 -81.5947 284° West 412 474 27,600 1,200 Climbing Cleveland Center
Fri 09:35:00 PM 40.7969 -81.7461 285° West 424 488 28,900 1,400 Climbing Cleveland Center
Fri 09:36:00 PM 40.8247 -81.9003 283° West 424 488 30,400 1,150 Climbing Cleveland Center
Fri 09:37:00 PM 40.8539 -82.0544 284° West 434 499 31,200 1,100 Climbing Cleveland Center
Fri 09:38:00 PM 40.8811 -82.2117 283° West 439 505 32,600 1,200 Climbing Cleveland Center
Fri 09:39:00 PM 40.9061 -82.3497 284° West 434 499 33,600 700 Climbing Cleveland Center
Fri 09:40:00 PM 40.9347 -82.5097 283° West 434 499 34,000 200 Climbing Cleveland Center
Fri 09:41:00 PM 40.9611 -82.6728 282° West 447 514 34,000 350 Level Cleveland Center
Fri 09:42:00 PM 40.9914 -82.8361 284° West 461 531 34,700 850 Climbing Cleveland Center
Fri 09:43:00 PM 41.0211 -83.0022 283° West 461 531 35,700 650 Climbing Cleveland Center
Fri 09:44:00 PM 41.0450 -83.1519 282° West 461 531 36,000 150 Climbing Cleveland Center
Fri 09:45:00 PM 41.0786 -83.3294 284° West 461 531 36,000  Level Cleveland Center
Fri 09:46:00 PM 41.1033 -83.5042 281° West 472 543 36,000  Level Cleveland Center
Fri 09:47:00 PM 41.1322 -83.6764 283° West 472 543 36,000  Level Cleveland Center
Fri 09:48:00 PM 41.1608 -83.8489 282° West 472 543 36,000  Level Cleveland Center
Fri 09:49:00 PM 41.1914 -84.0158 284° West 472 543 36,000  Level Cleveland Center
Fri 09:50:04 PM 41.2211 -84.2133 281° West 476 548 36,000 -240 Level Chicago Center
Fri 09:51:05 PM 41.2278 -84.3886 273° West 476 548 35,500 -927 Descending Chicago Center
Fri 09:52:07 PM 41.2322 -84.5631 272° West 474 545 34,100 -732 Descending Chicago Center
Fri 09:53:08 PM 41.2372 -84.7358 272° West 470 541 34,000 -49 Descending Chicago Center
Fri 09:54:10 PM 41.2431 -84.9081 273° West 469 540 34,000 -290 Level Chicago Center
Fri 09:55:12 PM 41.2322 -85.0619 265° West 433 498 33,400 -780 Descending Chicago Center
Fri 09:56:13 PM 41.2017 -85.2186 256° West 434 499 32,400 -683 Descending Chicago Center
Fri 09:57:15 PM 41.1686 -85.3731 254° West 434 499 32,000 -194 Descending Chicago Center
Fri 09:58:17 PM 41.1331 -85.5611 256° West 436 502 32,000  Level Chicago Center
Fri 09:59:18 PM 41.1069 -85.7161 257° West 432 497 32,000 -1,317 Level Chicago Center
Fri 10:00:20 PM 41.1208 -85.8653 277° West 427 491 29,300 -3,194 Descending Chicago Center
Fri 10:01:22 PM 41.2150 -85.9642 322° Northwest 432 497 25,400 -2,098 Descending Chicago Center
Fri 10:02:23 PM 41.2797 -86.0925 304° West 453 521 25,000 -878 Descending Chicago Center
Fri 10:03:25 PM 41.2825 -86.2558 271° West 447 514 23,600 -1,512 Descending Chicago Center
Fri 10:04:26 PM 41.2833 -86.4194 270° West 444 511 21,900 -1,659 Descending Chicago Center
Fri 10:05:28 PM 41.2858 -86.5786 271° West 436 502 20,200 -1,951 Descending Chicago Center
Fri 10:06:29 PM 41.3125 -86.7567 281° West 411 473 17,900 -2,098 Descending Chicago Center
Fri 10:07:31 PM 41.3786 -86.8797 306° West 419 482 15,900 -1,951 Descending Chicago Center
Fri 10:08:32 PM 41.4483 -86.9950 309° West 407 468 13,900 -1,951 Descending Chicago Center
Fri 10:09:34 PM 41.5178 -87.1081 309° West 400 460 11,900 -1,565 Descending Chicago Center
Fri 10:10:27 PM 41.5833 -87.2167 309° West 365 420 10,900 -454 Descending Chicago TRACON
Fri 10:11:33 PM 41.6333 -87.3167 304° West 321 369 11,000 50 Climbing Chicago TRACON
Fri 10:12:27 PM 41.6833 -87.4000 309° West 304 350 11,000 -158 Level Chicago TRACON
Fri 10:13:27 PM 41.7333 -87.5000 304° West 310 357 10,700 -945 Descending Chicago TRACON
Fri 10:14:34 PM 41.7833 -87.6000 304° West 308 354 9,000 -1,537 Descending Chicago TRACON
Fri 10:15:28 PM 41.8333 -87.6833 309° West 302 348 7,600 -950 Descending Chicago TRACON
Fri 10:16:34 PM 41.8667 -87.7833 294° West 260 299 7,100 -286 Descending Chicago TRACON
Fri 10:17:34 PM 41.8667 -87.8667 270° West 217 250 7,000 -50 Descending Chicago TRACON
Fri 10:18:34 PM 41.8500 -87.9333 251° West 210 242 7,000 -421 Level Chicago TRACON
Fri 10:19:28 PM 41.8167 -87.9667 217° Southwest 179 206 6,200 -1,135 Descending Chicago TRACON
Fri 10:19:48 PM 41.7914 -87.9753 194° South 182 209 5,600 -1,610 Descending Chicago Center
Fri 10:20:50 PM 41.7931 -88.0408 272° West 211 243 4,000 -878 Descending Chicago Center
Fri 10:21:51 PM 41.8411 -88.0369 North 202 232 3,800 -639 Descending Chicago Center
Fri 10:22:52 PM 41.8747 -87.9917 45° Northeast 182 209 2,700 -990 Descending Chicago Center
Fri 10:23:34 PM 41.9000 -87.9667 36° Northeast 160 184 2,100 -824 Descending Chicago TRACON
Fri 10:24:34 PM 41.9333 -87.9333 37° Northeast 116 133 1,300 -800 Descending Chicago TRACON
Fri 10:27:00 PM 41.9667 -87.9000 18° North  Level FlightAware Approximate

Login

Don't have an account? Register now (free) for customized features, flight alerts, and more!